Terminal Aerodrome Forecast
Issued by NWS

Home | Current Version | Previous Version | Text Only | Print | Product List | Glossary On
Versions: 1 2 3 4 5 6 7 8 9 10 11 12 13
721
FTUS44 KJAN 220559
TAFHKS
TAF
KHKS 220559Z 2206/2306 00000KT P6SM FEW080
     FM221000 00000KT 4SM BR SCT003
     FM221100 00000KT 1SM BR OVC003
     FM221400 35005KT P6SM BKN007
     FM221600 36007KT P6SM SCT030
     FM222200 02003KT P6SM SKC=

USA.gov is the U.S. government's official web portal to all federal, state and local government web resources and services.